Time;durP1;ratioP1;P1;durP2;ratioP2;P2;SDS_P1;SDS_P2;PMS_P1;PMS_P2;Temp;Humidity;BMP_temperature;BMP_pressure;BME280_temperature;BME280_humidity;BME280_pressure;Samples;Min_cycle;Max_cycle;Signal;HPM_P1;HPM_P2
2023/12/30 00:00:54;;;;;;;7.93;2.80;;;8.50;95.50;;;10.22;66.75;100380.56;3081433;46;20431;-65
2023/12/30 00:03:23;;;;;;;6.57;2.43;;;8.60;95.50;;;10.24;66.50;100372.47;3081741;46;20436;-64
2023/12/30 00:05:51;;;;;;;5.37;2.77;;;8.60;95.50;;;10.25;66.70;100374.91;3081438;46;20439;-66
2023/12/30 00:08:20;;;;;;;6.13;3.13;;;8.60;95.50;;;10.25;66.59;100377.53;3080946;46;20557;-66
2023/12/30 00:10:48;;;;;;;10.17;2.90;;;8.60;95.50;;;10.26;66.44;100381.81;3081178;46;20440;-66
2023/12/30 00:13:17;;;;;;;4.07;2.37;;;8.60;95.40;;;10.27;66.69;100391.31;3081161;46;20508;-65
2023/12/30 00:15:45;;;;;;;5.60;2.50;;;8.70;95.50;;;10.31;66.60;100399.69;3081489;46;21025;-65
2023/12/30 00:18:15;;;;;;;3.07;2.40;;;8.70;95.40;;;10.33;66.24;100395.88;3080565;46;20461;-63
2023/12/30 00:20:43;;;;;;;3.90;2.07;;;8.70;95.80;;;10.36;66.45;100407.84;3081194;46;20427;-65
2023/12/30 00:23:13;;;;;;;5.20;2.17;;;8.70;95.40;;;10.37;66.32;100418.19;3081291;46;21005;-63
2023/12/30 00:25:41;;;;;;;3.77;2.00;;;8.70;95.40;;;10.42;66.36;100404.47;3081574;46;20439;-68
2023/12/30 00:28:10;;;;;;;4.23;2.33;;;8.70;95.40;;;10.46;66.31;100411.81;3079908;46;20440;-64
2023/12/30 00:30:38;;;;;;;3.07;1.67;;;8.70;95.50;;;10.49;66.18;100413.28;3081313;46;20431;-64
2023/12/30 00:33:06;;;;;;;3.97;1.70;;;8.80;95.50;;;10.51;66.11;100398.13;3080933;46;21059;-65
2023/12/30 00:35:35;;;;;;;3.23;1.83;;;8.80;95.50;;;10.52;66.22;100416.38;3081243;46;20489;-68
2023/12/30 00:38:03;;;;;;;3.57;2.33;;;8.80;95.50;;;10.54;66.20;100409.09;3080622;46;20575;-65
2023/12/30 00:40:32;;;;;;;4.20;2.90;;;8.80;95.40;;;10.55;66.04;100404.66;3080469;46;20465;-65
2023/12/30 00:43:00;;;;;;;5.33;2.83;;;8.80;95.30;;;10.54;65.99;100408.28;3080806;46;20456;-66
2023/12/30 00:45:29;;;;;;;5.77;2.10;;;8.90;95.30;;;10.51;65.98;100404.19;3081019;46;20593;-66
2023/12/30 00:47:57;;;;;;;5.37;2.30;;;8.80;95.10;;;10.50;65.68;100423.63;3080538;46;20499;-65
2023/12/30 00:50:26;;;;;;;3.33;2.20;;;8.90;94.90;;;10.51;65.62;100425.25;3080689;46;20575;-66
2023/12/30 00:52:54;;;;;;;5.90;2.30;;;8.90;95.10;;;10.52;65.35;100432.16;3080913;46;20945;-66
2023/12/30 00:55:22;;;;;;;4.77;2.73;;;8.90;94.70;;;10.53;65.36;100431.13;3081071;46;20431;-65
2023/12/30 00:57:51;;;;;;;3.03;2.53;;;8.90;94.70;;;10.53;65.36;100444.31;3080326;46;20519;-66
2023/12/30 01:00:19;;;;;;;3.57;2.70;;;8.90;94.70;;;10.51;65.39;100441.03;3081110;46;20615;-65
2023/12/30 01:02:48;;;;;;;6.00;2.73;;;8.90;94.80;;;10.52;65.46;100449.75;3083296;46;20576;-63
2023/12/30 01:05:16;;;;;;;6.57;2.53;;;8.90;94.80;;;10.51;65.61;100453.38;3083174;46;20512;-66
2023/12/30 01:07:45;;;;;;;2.90;2.13;;;8.90;94.90;;;10.51;65.60;100456.81;3082905;46;20440;-64
2023/12/30 01:10:17;;;;;;;5.73;3.07;;;8.90;95.00;;;10.52;65.60;100461.09;3083265;46;20497;-65
2023/12/30 01:12:46;;;;;;;3.83;1.97;;;8.90;95.00;;;10.51;65.88;100456.00;3083207;46;20509;-65
2023/12/30 01:15:14;;;;;;;5.27;2.77;;;8.90;95.00;;;10.50;65.96;100455.22;3083300;46;20538;-64
2023/12/30 01:17:42;;;;;;;4.60;2.70;;;8.90;95.00;;;10.49;65.73;100466.72;3081904;46;21502;-66
2023/12/30 01:20:11;;;;;;;2.87;2.10;;;8.90;95.10;;;10.48;65.83;100473.00;3083549;46;20427;-66
2023/12/30 01:22:39;;;;;;;5.30;2.17;;;8.90;95.10;;;10.45;65.99;100478.59;3083534;46;20430;-65
2023/12/30 01:25:08;;;;;;;4.37;2.50;;;8.90;95.10;;;10.44;66.05;100474.34;3083462;46;20521;-66
2023/12/30 01:27:37;;;;;;;2.97;1.80;;;8.90;95.00;;;10.43;65.88;100469.25;3082710;46;20444;-66
2023/12/30 01:30:06;;;;;;;6.83;2.20;;;8.90;95.00;;;10.40;66.08;100475.69;3083154;46;20505;-65
2023/12/30 01:32:36;;;;;;;2.83;1.53;;;8.80;95.00;;;10.36;65.86;100484.94;3082620;46;20438;-64
2023/12/30 01:35:06;;;;;;;7.57;2.00;;;8.90;94.90;;;10.34;66.07;100488.75;3083411;46;20453;-65
2023/12/30 01:37:34;;;;;;;5.57;1.73;;;8.80;94.80;;;10.37;66.15;100485.75;3082633;46;20566;-66
2023/12/30 01:40:04;;;;;;;4.40;2.10;;;8.80;94.80;;;10.40;65.65;100488.84;3082798;46;20520;-62
2023/12/30 01:42:32;;;;;;;5.23;1.83;;;8.80;95.00;;;10.42;65.65;100484.22;3082819;46;20438;-65
2023/12/30 01:45:00;;;;;;;4.30;2.00;;;8.80;94.60;;;10.41;65.28;100489.69;3083200;46;20478;-63
2023/12/30 01:47:31;;;;;;;5.70;1.30;;;8.80;94.50;;;10.40;65.39;100480.13;3082410;46;20703;-66
2023/12/30 01:49:59;;;;;;;4.80;2.17;;;8.80;94.40;;;10.40;65.36;100483.59;3081971;46;20440;-66
2023/12/30 01:52:28;;;;;;;6.07;2.20;;;8.80;94.40;;;10.39;65.15;100481.94;3083202;46;20440;-65
2023/12/30 01:54:57;;;;;;;6.17;1.97;;;8.80;94.20;;;10.38;64.86;100490.84;3082010;46;20432;-65
2023/12/30 01:57:26;;;;;;;7.43;1.67;;;8.80;94.10;;;10.36;64.90;100494.66;3082279;46;20525;-66
2023/12/30 01:59:54;;;;;;;3.80;1.60;;;8.80;94.10;;;10.33;64.88;100497.63;3083142;46;21068;-65
2023/12/30 02:02:23;;;;;;;5.13;2.00;;;8.80;94.00;;;10.30;64.73;100506.69;3081909;46;21162;-64
2023/12/30 02:04:52;;;;;;;5.97;2.10;;;8.80;94.00;;;10.27;64.79;100496.53;3082648;46;20482;-66
2023/12/30 02:07:20;;;;;;;5.07;1.80;;;8.80;94.00;;;10.25;64.70;100502.94;3082685;46;20592;-66
2023/12/30 02:09:49;;;;;;;5.57;2.03;;;8.70;94.00;;;10.22;64.77;100501.53;3082977;46;20451;-68
2023/12/30 02:12:17;;;;;;;6.20;2.40;;;8.70;94.10;;;10.20;64.87;100506.13;3082401;46;20456;-65
2023/12/30 02:14:45;;;;;;;4.27;2.03;;;8.70;94.10;;;10.18;65.21;100502.84;3082429;46;20512;-67
2023/12/30 02:17:14;;;;;;;5.47;2.10;;;8.70;94.20;;;10.19;65.18;100499.25;3082316;46;20450;-63
2023/12/30 02:19:42;;;;;;;3.50;1.93;;;8.70;94.30;;;10.17;65.23;100501.25;3082611;46;20428;-65
2023/12/30 02:22:11;;;;;;;6.23;2.30;;;8.60;94.40;;;10.15;65.25;100497.94;3082538;46;21005;-65
2023/12/30 02:24:39;;;;;;;8.53;1.97;;;8.60;94.40;;;10.12;65.14;100503.56;3082719;46;21013;-65
2023/12/30 02:27:09;;;;;;;4.93;1.77;;;8.60;94.40;;;10.09;65.15;100507.34;3082202;46;20458;-66
2023/12/30 02:29:37;;;;;;;4.93;2.03;;;8.60;94.50;;;10.07;65.42;100511.16;3082747;46;20442;-63
2023/12/30 02:32:06;;;;;;;6.30;2.00;;;8.60;94.60;;;10.07;65.61;100517.22;3082906;46;21005;-66
2023/12/30 02:34:34;;;;;;;8.57;2.10;;;8.50;94.60;;;10.08;65.53;100502.25;3082381;46;20472;-66
2023/12/30 02:37:03;;;;;;;6.80;1.90;;;8.50;94.70;;;10.10;65.49;100508.16;3082404;46;20468;-64
2023/12/30 02:39:31;;;;;;;5.13;1.43;;;8.50;94.70;;;10.09;65.71;100503.91;3082720;46;21007;-65
2023/12/30 02:42:00;;;;;;;6.20;2.40;;;8.60;94.70;;;10.10;65.64;100516.06;3081917;46;20428;-63
2023/12/30 02:44:28;;;;;;;5.40;2.10;;;8.50;94.60;;;10.12;65.67;100519.34;3082514;46;20455;-64
2023/12/30 02:46:56;;;;;;;6.40;2.00;;;8.50;94.60;;;10.15;65.45;100518.97;3082214;46;20573;-66
2023/12/30 02:49:30;;;;;;;5.57;2.07;;;8.50;94.60;;;10.15;65.48;100518.97;3082238;46;20499;-62
2023/12/30 02:51:58;;;;;;;6.00;1.57;;;8.60;94.60;;;10.13;65.47;100534.13;3082471;46;20432;-66
2023/12/30 02:54:28;;;;;;;4.27;1.90;;;8.60;94.50;;;10.14;65.10;100538.41;3082598;46;20562;-65
2023/12/30 02:56:56;;;;;;;8.30;1.93;;;8.60;94.50;;;10.14;65.35;100539.22;3081801;46;21069;-65
2023/12/30 02:59:25;;;;;;;9.00;2.20;;;8.60;94.50;;;10.10;65.18;100544.97;3082559;46;20427;-66
2023/12/30 03:01:53;;;;;;;3.03;1.50;;;8.60;94.40;;;10.09;65.35;100548.59;3082245;46;20457;-65
2023/12/30 03:04:22;;;;;;;5.63;1.80;;;8.60;94.40;;;10.09;64.97;100546.78;3082708;46;20447;-65
2023/12/30 03:06:51;;;;;;;6.37;1.90;;;8.60;94.30;;;10.07;64.98;100556.66;3081963;46;20427;-64
2023/12/30 03:09:19;;;;;;;6.60;1.57;;;8.50;94.20;;;10.05;65.09;100552.56;3081998;46;20596;-65
2023/12/30 03:11:48;;;;;;;5.57;1.57;;;8.50;94.10;;;10.02;64.88;100545.84;3081844;46;20451;-66
2023/12/30 03:14:16;;;;;;;5.30;1.50;;;8.50;94.20;;;9.99;65.10;100542.75;3082080;46;20424;-62
2023/12/30 03:16:44;;;;;;;3.00;1.63;;;8.50;94.10;;;9.98;65.04;100543.75;3081835;46;20431;-65
2023/12/30 03:19:13;;;;;;;6.90;1.80;;;8.50;94.10;;;9.96;65.12;100556.25;3082067;46;20465;-62
2023/12/30 03:21:41;;;;;;;5.77;1.80;;;8.50;94.10;;;9.90;64.92;100556.94;3081207;46;20511;-65
2023/12/30 03:24:09;;;;;;;6.70;2.20;;;8.40;94.00;;;9.89;65.10;100555.31;3081443;46;20529;-65
2023/12/30 03:26:38;;;;;;;5.27;1.77;;;8.40;94.10;;;9.88;65.05;100566.81;3081118;46;20457;-65
2023/12/30 03:29:06;;;;;;;11.47;1.90;;;8.40;94.10;;;9.87;65.16;100567.78;3081880;46;20942;-66
2023/12/30 03:31:35;;;;;;;8.53;2.00;;;8.40;94.40;;;9.85;65.06;100567.16;3081953;46;20470;-65
2023/12/30 03:34:04;;;;;;;6.50;1.53;;;8.30;94.10;;;9.84;64.85;100573.44;3082005;46;21091;-65
2023/12/30 03:36:32;;;;;;;5.23;1.80;;;8.30;94.10;;;9.84;64.96;100573.44;3081345;46;20440;-65
2023/12/30 03:39:00;;;;;;;3.33;1.40;;;8.30;94.10;;;9.82;64.85;100576.22;3081786;46;20485;-61
2023/12/30 03:41:29;;;;;;;5.43;1.20;;;8.30;94.10;;;9.84;64.98;100573.44;3081348;46;20432;-66
2023/12/30 03:43:57;;;;;;;6.77;1.57;;;8.30;94.10;;;9.88;65.00;100579.97;3081893;46;20545;-65
2023/12/30 03:46:25;;;;;;;5.00;1.40;;;8.30;94.20;;;9.94;64.73;100589.78;3081731;46;20485;-65
2023/12/30 03:48:54;;;;;;;5.40;1.67;;;8.30;94.20;;;9.98;64.88;100583.19;3081303;46;20441;-63
2023/12/30 03:51:22;;;;;;;6.90;1.47;;;8.30;94.20;;;10.04;64.88;100590.38;3081962;46;20431;-61
2023/12/30 03:53:51;;;;;;;3.53;1.20;;;8.40;94.20;;;10.07;64.62;100590.03;3081921;46;20572;-64
2023/12/30 03:56:19;;;;;;;5.03;1.70;;;8.40;94.20;;;10.12;64.37;100585.09;3081897;46;20454;-65
2023/12/30 03:58:48;;;;;;;5.80;1.73;;;8.40;94.50;;;10.14;64.56;100583.09;3081205;46;20531;-65
2023/12/30 04:01:16;;;;;;;4.43;1.67;;;8.50;94.10;;;10.17;64.32;100586.19;3081319;46;20553;-64
2023/12/30 04:03:45;;;;;;;6.93;1.50;;;8.50;94.10;;;10.19;64.36;100578.13;3081227;46;20428;-66
2023/12/30 04:06:19;;;;;;;4.43;1.23;;;8.50;94.00;;;10.18;64.31;100587.00;3081336;46;20553;-66
2023/12/30 04:08:48;;;;;;;6.27;2.00;;;8.50;94.00;;;10.20;64.02;100590.28;3080895;46;20563;-64
2023/12/30 04:11:16;;;;;;;8.27;2.20;;;8.50;94.00;;;10.19;64.09;100583.41;3081474;46;21018;-65
2023/12/30 04:13:44;;;;;;;4.77;1.87;;;8.60;93.90;;;10.20;64.22;100583.22;3081369;46;21037;-65
2023/12/30 04:16:13;;;;;;;7.47;2.03;;;8.60;93.90;;;10.22;64.04;100588.31;3081599;46;20427;-64
2023/12/30 04:18:41;;;;;;;5.47;1.97;;;8.60;93.90;;;10.25;64.22;100587.13;3080853;46;20438;-65
2023/12/30 04:21:10;;;;;;;6.00;1.63;;;8.60;93.90;;;10.24;63.72;100578.44;3081392;46;20429;-64
2023/12/30 04:23:38;;;;;;;6.90;1.70;;;8.60;93.80;;;10.24;63.80;100586.31;3081353;46;20568;-65
2023/12/30 04:26:06;;;;;;;7.40;1.67;;;8.60;93.80;;;10.24;63.72;100586.31;3081169;46;20435;-64
2023/12/30 04:28:35;;;;;;;7.57;2.00;;;8.70;93.80;;;10.28;63.97;100571.00;3080873;46;20461;-64
2023/12/30 04:31:03;;;;;;;3.40;1.47;;;8.60;93.50;;;10.32;63.65;100598.59;3081487;46;20430;-63
2023/12/30 04:33:32;;;;;;;6.47;1.67;;;8.70;93.50;;;10.34;63.38;100592.13;3081429;46;20431;-64
2023/12/30 04:36:00;;;;;;;8.70;1.67;;;8.70;93.50;;;10.37;63.21;100590.97;3080806;46;20552;-64
2023/12/30 04:38:29;;;;;;;7.00;1.80;;;8.70;93.30;;;10.40;62.92;100601.16;3080712;46;21100;-66
2023/12/30 04:40:57;;;;;;;4.70;2.30;;;8.70;93.20;;;10.42;62.98;100594.72;3080927;46;20424;-63
2023/12/30 04:43:25;;;;;;;5.53;1.77;;;8.70;93.20;;;10.44;62.89;100597.16;3081387;46;20599;-65
2023/12/30 04:45:54;;;;;;;7.00;1.77;;;8.80;93.20;;;10.45;62.80;100604.06;3081135;46;20443;-66
2023/12/30 04:48:22;;;;;;;9.73;1.67;;;8.80;93.10;;;10.48;62.57;100603.72;3080569;46;20464;-65
2023/12/30 04:50:51;;;;;;;5.47;1.43;;;8.80;93.00;;;10.49;62.47;100595.66;3081331;46;21045;-64
2023/12/30 04:53:19;;;;;;;6.07;2.23;;;8.80;93.00;;;10.49;62.33;100593.00;3081198;46;20507;-66
2023/12/30 04:55:48;;;;;;;4.53;1.60;;;8.80;92.90;;;10.47;62.16;100591.56;3081446;46;20516;-66
2023/12/30 04:58:17;;;;;;;5.97;1.73;;;8.80;92.80;;;10.48;62.45;100596.66;3080408;46;20465;-65
2023/12/30 05:00:46;;;;;;;6.60;2.47;;;8.80;92.80;;;10.48;62.18;100599.28;3081135;46;20431;-65
2023/12/30 05:03:17;;;;;;;6.20;1.40;;;8.80;92.80;;;10.48;61.99;100588.75;3080741;46;20432;-65
2023/12/30 05:05:46;;;;;;;4.30;1.60;;;8.80;92.70;;;10.49;62.27;100598.28;3080545;46;20565;-65
2023/12/30 05:08:14;;;;;;;5.00;1.37;;;8.80;92.70;;;10.51;62.28;100595.47;3080387;46;20530;-65
2023/12/30 05:10:43;;;;;;;6.43;1.90;;;8.90;92.80;;;10.51;62.05;100614.69;3080843;46;20463;-65
2023/12/30 05:13:11;;;;;;;3.80;1.70;;;8.90;92.80;;;10.50;61.97;100618.34;3080789;46;20465;-63
2023/12/30 05:15:39;;;;;;;5.43;1.80;;;8.90;92.60;;;10.50;61.86;100618.34;3080768;46;21027;-64
2023/12/30 05:18:08;;;;;;;6.03;1.47;;;8.90;92.60;;;10.50;61.88;100628.88;3080307;46;20467;-63
2023/12/30 05:20:36;;;;;;;5.23;1.77;;;8.90;92.50;;;10.49;61.78;100631.66;3080996;46;20489;-66
2023/12/30 05:23:05;;;;;;;7.00;1.50;;;8.90;92.40;;;10.47;61.72;100629.22;3080763;46;20452;-65
2023/12/30 05:25:33;;;;;;;9.53;2.00;;;8.90;92.40;;;10.44;61.17;100634.81;3080589;46;20483;-65
2023/12/30 05:28:02;;;;;;;9.13;2.10;;;8.90;92.30;;;10.44;61.65;100634.81;3080288;46;20577;-66
2023/12/30 05:30:30;;;;;;;6.17;1.40;;;8.90;92.30;;;10.47;61.53;100639.75;3080812;46;20427;-66
2023/12/30 05:32:59;;;;;;;9.37;1.60;;;8.90;92.40;;;10.45;61.43;100641.72;3080904;46;20487;-64
2023/12/30 05:35:28;;;;;;;10.83;1.80;;;8.80;92.30;;;10.40;61.40;100644.06;3080669;46;20521;-64
2023/12/30 05:37:56;;;;;;;8.03;2.20;;;8.80;92.20;;;10.35;61.44;100656.09;3080411;46;21011;-66
2023/12/30 05:40:24;;;;;;;6.03;1.73;;;8.80;92.20;;;10.30;61.65;100650.53;3080799;46;20452;-66
2023/12/30 05:42:53;;;;;;;7.23;1.90;;;8.80;92.20;;;10.24;61.54;100659.97;3080262;46;20423;-65
2023/12/30 05:45:21;;;;;;;6.33;1.57;;;8.80;92.20;;;10.19;61.88;100649.16;3080563;46;20427;-64
2023/12/30 05:47:50;;;;;;;3.37;1.33;;;8.70;92.20;;;10.14;61.88;100664.63;3080444;46;20468;-66
2023/12/30 05:50:18;;;;;;;5.57;1.90;;;8.70;92.20;;;10.09;61.98;100667.75;3082811;46;20465;-66
2023/12/30 05:52:48;;;;;;;3.90;1.57;;;8.60;92.20;;;10.06;62.09;100662.00;3083358;46;20435;-63
2023/12/30 05:55:16;;;;;;;5.10;1.70;;;8.60;92.30;;;10.03;62.14;100662.38;3082342;46;20479;-65
2023/12/30 05:57:47;;;;;;;7.73;2.07;;;8.50;92.30;;;10.01;62.08;100664.31;3082407;46;20443;-65
2023/12/30 06:00:16;;;;;;;3.70;1.40;;;8.50;92.40;;;9.97;62.24;100674.38;3083025;46;21182;-65
2023/12/30 06:02:45;;;;;;;5.83;1.70;;;8.50;92.40;;;9.96;62.06;100678.00;3083248;46;20428;-65
2023/12/30 06:05:14;;;;;;;10.67;2.20;;;8.40;92.40;;;9.94;62.31;100684.41;3082671;46;20606;-66
2023/12/30 06:07:42;;;;;;;6.07;1.50;;;8.40;92.50;;;9.90;62.12;100683.13;3082551;46;20504;-66
2023/12/30 06:10:10;;;;;;;5.57;1.70;;;8.40;92.50;;;9.89;62.40;100702.53;3082935;46;20462;-65
2023/12/30 06:12:39;;;;;;;9.20;2.27;;;8.40;92.50;;;9.87;62.27;100699.22;3082485;46;20486;-65
2023/12/30 06:15:08;;;;;;;10.07;2.10;;;8.40;92.50;;;9.85;62.47;100703.84;3082849;46;20432;-64
2023/12/30 06:17:37;;;;;;;5.83;1.43;;;8.30;92.50;;;9.84;62.46;100699.59;3082361;46;20525;-65
2023/12/30 06:20:10;;;;;;;6.10;1.73;;;8.30;92.50;;;9.80;62.75;100703.53;3082971;46;20451;-64
2023/12/30 06:22:38;;;;;;;12.13;2.30;;;8.30;92.50;;;9.78;62.32;100705.50;3082312;46;21098;-65
2023/12/30 06:25:07;;;;;;;4.30;1.50;;;8.30;92.50;;;9.78;62.55;100708.97;3082704;46;20434;-65
2023/12/30 06:27:35;;;;;;;5.43;1.70;;;8.30;92.50;;;9.79;62.41;100712.41;3082576;46;20446;-64
2023/12/30 06:30:06;;;;;;;7.93;2.37;;;8.30;92.60;;;9.79;62.26;100715.06;3082743;46;20431;-63
2023/12/30 06:32:35;;;;;;;9.87;1.90;;;8.30;92.60;;;9.79;62.56;100721.13;3082839;46;20477;-62
2023/12/30 06:35:05;;;;;;;8.33;1.63;;;8.30;92.60;;;9.77;62.62;100724.91;3083420;46;20554;-64
2023/12/30 06:37:33;;;;;;;6.27;1.77;;;8.30;92.60;;;9.76;62.56;100725.88;3081946;46;20467;-66
2023/12/30 06:40:02;;;;;;;6.13;1.80;;;8.30;92.60;;;9.72;62.53;100716.72;3082220;46;20458;-66
2023/12/30 06:42:31;;;;;;;8.00;1.77;;;8.20;92.60;;;9.69;62.48;100722.31;3082579;46;20428;-64
2023/12/30 06:44:59;;;;;;;3.87;1.43;;;8.20;92.60;;;9.65;62.75;100715.75;3082570;46;21146;-65
2023/12/30 06:47:27;;;;;;;5.00;1.80;;;8.20;92.60;;;9.65;62.83;100734.94;3081843;46;20540;-64
2023/12/30 06:49:56;;;;;;;5.93;2.07;;;8.20;92.80;;;9.66;62.76;100738.41;3081873;46;21034;-65
2023/12/30 06:52:24;;;;;;;6.90;2.00;;;8.20;92.80;;;9.63;62.84;100744.00;3082692;46;20452;-66
2023/12/30 06:54:53;;;;;;;10.60;2.20;;;8.10;92.80;;;9.62;62.84;100750.25;3082913;46;20574;-65
2023/12/30 06:57:41;;;;;;;6.90;2.40;;;8.10;92.80;;;9.59;62.92;100758.44;3081761;46;20530;-64
2023/12/30 07:00:10;;;;;;;8.87;2.03;;;8.10;92.80;;;9.55;62.81;100748.28;3082423;46;20465;-66
2023/12/30 07:02:40;;;;;;;13.00;2.23;;;8.10;92.90;;;9.55;63.22;100752.72;3082301;46;21012;-67
2023/12/30 07:05:09;;;;;;;10.73;2.10;;;8.10;92.90;;;9.51;63.30;100752.22;3082080;46;20431;-66
2023/12/30 07:07:38;;;;;;;4.67;1.70;;;8.00;93.00;;;9.52;63.13;100759.13;3081727;46;20443;-63
2023/12/30 07:10:07;;;;;;;7.40;2.13;;;8.00;93.00;;;9.49;63.40;100759.47;3082155;46;20452;-65
2023/12/30 07:12:36;;;;;;;9.80;2.23;;;8.00;93.00;;;9.47;63.63;100761.44;3082166;46;20431;-66
2023/12/30 07:15:05;;;;;;;5.50;2.60;;;8.00;93.00;;;9.47;63.63;100760.59;3082161;46;21140;-66
2023/12/30 07:17:33;;;;;;;8.03;1.97;;;8.00;93.10;;;9.43;63.45;100754.88;3081660;46;20569;-65
2023/12/30 07:20:02;;;;;;;7.67;2.27;;;8.00;93.10;;;9.44;63.38;100771.44;3081908;46;20613;-65
2023/12/30 07:22:30;;;;;;;3.80;1.83;;;8.00;93.20;;;9.44;63.44;100766.19;3082252;46;20491;-64
2023/12/30 07:24:59;;;;;;;8.43;1.70;;;7.90;93.10;;;9.45;63.66;100767.84;3081791;46;20529;-65
2023/12/30 07:27:28;;;;;;;8.43;1.80;;;7.90;93.20;;;9.48;63.67;100780.66;3081311;46;20440;-65
2023/12/30 07:29:57;;;;;;;5.77;2.27;;;7.90;93.20;;;9.48;63.95;100784.06;3081880;46;20549;-63
2023/12/30 07:32:26;;;;;;;12.50;2.20;;;7.90;93.20;;;9.48;63.53;100789.34;3082182;46;21057;-66
2023/12/30 07:34:54;;;;;;;5.70;2.97;;;7.90;93.30;;;9.48;63.48;100783.28;3081742;46;20438;-66
2023/12/30 07:37:24;;;;;;;8.23;2.23;;;7.90;93.30;;;9.48;63.82;100805.09;3080794;46;20498;-65
2023/12/30 07:39:53;;;;;;;6.43;1.80;;;7.90;93.40;;;9.49;63.61;100801.50;3081513;46;20427;-64
2023/12/30 07:42:21;;;;;;;8.27;2.37;;;7.90;93.30;;;9.50;63.67;100787.38;3081998;46;20989;-64
2023/12/30 07:44:53;;;;;;;10.33;2.43;;;7.90;93.30;;;9.50;63.63;100784.75;3081599;46;21079;-65
2023/12/30 07:47:22;;;;;;;11.10;2.07;;;7.90;93.30;;;9.51;63.62;100799.50;3081529;46;20468;-65
2023/12/30 07:49:50;;;;;;;4.73;2.13;;;7.90;93.30;;;9.52;63.88;100809.06;3081268;46;20456;-64
2023/12/30 07:52:19;;;;;;;9.00;2.20;;;8.00;93.40;;;9.57;63.79;100820.84;3082040;46;20451;-61
2023/12/30 07:54:48;;;;;;;6.67;2.40;;;8.00;93.40;;;9.64;63.67;100806.06;3081646;46;20424;-65
2023/12/30 07:57:16;;;;;;;5.73;2.00;;;8.00;93.40;;;9.71;63.52;100814.94;3081542;46;20436;-65
2023/12/30 07:59:44;;;;;;;7.90;2.00;;;8.00;93.40;;;9.79;63.16;100822.81;3081820;46;20548;-64
2023/12/30 08:02:13;;;;;;;8.83;1.93;;;8.10;93.40;;;9.86;63.14;100829.03;3081762;46;20554;-65
2023/12/30 08:04:43;;;;;;;6.20;2.03;;;8.10;93.40;;;9.91;63.08;100821.47;3081576;46;20553;-62
2023/12/30 08:07:12;;;;;;;6.07;1.97;;;8.20;93.20;;;9.97;62.92;100826.03;3081446;46;21088;-65
2023/12/30 08:09:40;;;;;;;8.20;1.90;;;8.20;93.30;;;10.02;62.81;100824.56;3081269;46;20954;-64
2023/12/30 08:12:08;;;;;;;10.20;2.03;;;8.30;93.50;;;10.08;62.68;100830.94;3080713;46;21096;-65
2023/12/30 08:14:37;;;;;;;8.40;2.03;;;8.30;93.10;;;10.12;62.59;100834.91;3081598;46;20544;-65
2023/12/30 08:17:06;;;;;;;5.60;1.70;;;8.30;93.00;;;10.15;62.30;100837.19;3081088;46;20581;-65
2023/12/30 08:19:34;;;;;;;11.00;1.87;;;8.40;92.90;;;10.17;62.23;100843.91;3081211;46;20590;-64
2023/12/30 08:22:03;;;;;;;10.30;1.80;;;8.50;92.80;;;10.20;62.10;100845.41;3081524;46;20436;-65
2023/12/30 08:24:31;;;;;;;10.73;1.80;;;8.50;92.70;;;10.22;61.94;100846.06;3081273;46;20514;-62
2023/12/30 08:27:00;;;;;;;8.53;2.10;;;8.50;92.70;;;10.25;62.07;100853.59;3081178;46;20580;-65
2023/12/30 08:29:28;;;;;;;6.97;2.00;;;8.50;92.50;;;10.27;61.60;100854.25;3081436;46;21076;-66
2023/12/30 08:31:56;;;;;;;7.73;2.13;;;8.60;92.50;;;10.30;61.56;100863.59;3081319;46;20448;-63
2023/12/30 08:34:27;;;;;;;9.07;2.53;;;8.60;92.40;;;10.33;61.63;100858.84;3081212;46;20426;-65
2023/12/30 08:36:56;;;;;;;9.37;3.17;;;8.60;92.40;;;10.38;61.20;100851.25;3081058;46;20445;-64
2023/12/30 08:39:25;;;;;;;8.23;1.97;;;8.70;92.40;;;10.42;61.28;100865.72;3081117;46;20431;-64
2023/12/30 08:41:53;;;;;;;8.50;2.10;;;8.70;92.30;;;10.46;61.12;100869.63;3081093;46;20549;-61
2023/12/30 08:44:22;;;;;;;12.03;2.70;;;8.70;92.20;;;10.50;61.21;100878.03;3081280;46;20434;-66
2023/12/30 08:46:50;;;;;;;10.33;2.10;;;8.80;92.20;;;10.51;60.81;100872.56;3080506;46;20588;-66
2023/12/30 08:49:18;;;;;;;9.40;1.87;;;8.70;92.10;;;10.55;60.66;100875.69;3081319;46;21115;-65
2023/12/30 08:51:47;;;;;;;10.57;2.03;;;8.80;91.90;;;10.57;60.31;100884.25;3081100;46;20979;-65
2023/12/30 08:54:15;;;;;;;10.40;1.93;;;8.80;91.80;;;10.60;60.38;100882.06;3080958;46;20479;-65
2023/12/30 08:56:44;;;;;;;9.80;2.10;;;8.90;91.80;;;10.62;60.37;100882.75;3080786;46;20430;-65
2023/12/30 08:59:12;;;;;;;8.93;1.90;;;8.90;91.80;;;10.65;60.45;100895.53;3080931;46;20477;-64
2023/12/30 09:01:41;;;;;;;8.13;2.23;;;8.90;91.70;;;10.68;60.14;100889.13;3081165;46;21153;-65
2023/12/30 09:04:09;;;;;;;5.77;1.70;;;8.90;91.70;;;10.71;60.15;100900.13;3081627;46;20559;-65
2023/12/30 09:06:38;;;;;;;6.50;2.00;;;8.90;91.70;;;10.74;60.12;100899.78;3080281;46;20561;-65
2023/12/30 09:09:06;;;;;;;10.67;2.30;;;9.00;91.70;;;10.79;60.02;100907.97;3080789;46;20445;-66
2023/12/30 09:11:38;;;;;;;8.73;1.60;;;9.00;91.70;;;10.83;60.15;100908.47;3080637;46;20440;-63
2023/12/30 09:14:06;;;;;;;8.10;2.33;;;9.10;91.70;;;10.86;60.09;100916.84;3081346;46;21160;-66
2023/12/30 09:16:34;;;;;;;7.73;2.13;;;9.10;91.70;;;10.88;59.88;100920.16;3080314;46;20442;-66
2023/12/30 09:19:04;;;;;;;12.63;2.57;;;9.10;91.70;;;10.92;59.76;100927.69;3080892;46;20452;-65
2023/12/30 09:21:33;;;;;;;6.10;2.10;;;9.10;91.50;;;10.92;59.64;100931.13;3080720;46;20580;-66
2023/12/30 09:24:01;;;;;;;9.60;2.43;;;9.10;91.40;;;10.93;59.46;100934.59;3083360;46;20428;-66
2023/12/30 09:26:29;;;;;;;7.97;2.47;;;9.20;91.50;;;10.92;59.44;100930.31;3082868;46;20443;-64
2023/12/30 09:28:59;;;;;;;9.00;1.83;;;9.20;91.40;;;10.91;59.67;100937.38;3083503;46;20428;-64
2023/12/30 09:31:27;;;;;;;9.40;2.10;;;9.20;91.40;;;10.88;59.54;100953.53;3083393;46;21069;-64
2023/12/30 09:33:56;;;;;;;6.23;2.00;;;9.20;91.40;;;10.88;59.66;100949.09;3083496;46;21068;-65
2023/12/30 09:36:24;;;;;;;7.47;2.00;;;9.20;91.70;;;10.91;59.72;100957.66;3083015;46;20451;-64
2023/12/30 09:38:53;;;;;;;5.37;1.50;;;9.20;91.40;;;10.93;59.63;100955.66;3082993;46;20455;-65
2023/12/30 09:41:26;;;;;;;6.13;2.10;;;9.20;91.40;;;10.94;59.77;100947.59;3083019;46;20427;-66
2023/12/30 09:43:58;;;;;;;10.70;2.37;;;9.20;91.50;;;11.00;59.58;100961.88;3082486;46;20452;-63
2023/12/30 09:46:28;;;;;;;7.70;2.13;;;9.20;91.50;;;11.03;59.41;100951.03;3082141;46;20430;-66
2023/12/30 09:48:58;;;;;;;12.27;2.60;;;9.30;91.40;;;11.03;59.31;100962.34;3082049;46;20445;-65
2023/12/30 09:51:29;;;;;;;8.70;2.57;;;9.30;91.40;;;11.05;59.41;100951.66;3082948;46;20500;-65
2023/12/30 09:53:58;;;;;;;9.23;1.87;;;9.30;91.40;;;11.10;59.50;100958.03;3083066;46;20447;-66
2023/12/30 09:56:26;;;;;;;7.43;2.57;;;9.30;91.40;;;11.17;59.49;100952.91;3082315;46;20546;-65
2023/12/30 09:58:55;;;;;;;10.47;2.70;;;9.40;91.50;;;11.24;59.35;100959.97;3081795;46;20439;-65
2023/12/30 10:01:25;;;;;;;14.17;3.23;;;9.40;91.40;;;11.30;58.97;100958.44;3082119;46;20492;-64
2023/12/30 10:03:53;;;;;;;7.30;2.10;;;9.50;91.30;;;11.34;59.02;100970.25;3082213;46;20559;-66
2023/12/30 10:06:23;;;;;;;10.47;2.50;;;9.50;91.30;;;11.32;58.83;100956.44;3082558;46;20458;-62
2023/12/30 10:08:52;;;;;;;8.07;2.00;;;9.50;91.10;;;11.37;58.89;100965.47;3081807;46;20440;-65
2023/12/30 10:11:21;;;;;;;6.33;2.33;;;9.60;91.20;;;11.42;58.87;100972.84;3082648;46;20580;-65
2023/12/30 10:13:51;;;;;;;6.60;1.97;;;9.60;91.10;;;11.44;58.62;100966.41;3081819;46;20560;-63
2023/12/30 10:16:20;;;;;;;6.03;2.07;;;9.60;90.90;;;11.46;58.50;100968.88;3082309;46;20424;-65
2023/12/30 10:18:48;;;;;;;11.60;2.77;;;9.60;90.90;;;11.46;58.11;100966.22;3082632;46;20452;-66
2023/12/30 10:21:17;;;;;;;10.57;2.43;;;9.70;90.80;;;11.48;58.24;100962.44;3082905;46;20436;-66
2023/12/30 10:23:49;;;;;;;7.30;2.73;;;9.70;90.80;;;11.51;58.16;100971.78;3082670;46;20466;-62
2023/12/30 10:26:21;;;;;;;11.47;2.33;;;9.70;90.70;;;11.49;57.91;100973.78;3082367;46;20550;-64